createdAt,value
2022-11-25T00:01:42.954Z,5.25
2022-11-25T00:03:47.087Z,5.28
2022-11-25T00:05:51.173Z,5.35
2022-11-25T00:07:53.945Z,5.68
2022-11-25T00:09:56.754Z,5.40
2022-11-25T00:11:59.558Z,5.68
2022-11-25T00:14:02.236Z,5.35
2022-11-25T00:16:06.288Z,5.25
2022-11-25T00:18:09.055Z,5.70
2022-11-25T00:20:12.174Z,5.50
2022-11-25T00:22:16.639Z,4.60
2022-11-25T00:24:19.360Z,5.25
2022-11-25T00:26:23.387Z,5.70
2022-11-25T00:28:26.085Z,5.30
2022-11-25T00:30:28.780Z,5.25
2022-11-25T00:32:31.526Z,5.18
2022-11-25T00:34:35.236Z,5.30
2022-11-25T00:36:38.838Z,5.10
2022-11-25T00:38:42.936Z,5.40
2022-11-25T00:41:05.879Z,12.80
2022-11-25T00:43:27.351Z,12.50
2022-11-25T00:45:29.173Z,6.97
2022-11-25T00:47:31.988Z,6.35
2022-11-25T00:49:34.815Z,5.30
2022-11-25T00:51:37.752Z,5.47
2022-11-25T00:53:40.511Z,5.70
2022-11-25T00:56:02.098Z,5.68
2022-11-25T00:58:04.960Z,4.90
2022-11-25T01:00:09.164Z,5.28
2022-11-25T01:02:12.799Z,5.30
2022-11-25T01:04:15.984Z,4.90
2022-11-25T01:06:18.764Z,4.72
2022-11-25T01:08:21.587Z,5.05
2022-11-25T01:10:24.346Z,4.80
2022-11-25T01:12:28.528Z,4.70
2022-11-25T01:14:31.318Z,5.20
2022-11-25T01:16:34.279Z,6.38
2022-11-25T01:18:37.261Z,7.78
2022-11-25T01:20:40.053Z,9.60
2022-11-25T01:22:42.840Z,9.27
2022-11-25T01:24:45.678Z,5.97
2022-11-25T01:26:48.514Z,5.15
2022-11-25T01:28:55.561Z,5.03
2022-11-25T01:31:02.972Z,5.22
2022-11-25T01:33:05.718Z,4.63
2022-11-25T01:35:09.758Z,4.68
2022-11-25T01:37:13.039Z,5.13
2022-11-25T01:39:19.752Z,4.95
2022-11-25T01:41:24.102Z,5.45
2022-11-25T01:43:27.489Z,7.13
2022-11-25T01:45:37.119Z,5.95
2022-11-25T01:47:39.933Z,8.57
2022-11-25T01:49:47.616Z,7.03
2022-11-25T01:51:55.302Z,5.93
2022-11-25T01:54:02.705Z,5.25
2022-11-25T01:56:05.954Z,4.95
2022-11-25T01:58:13.656Z,4.97
2022-11-25T02:00:17.760Z,4.22
2022-11-25T02:02:22.966Z,5.00
2022-11-25T02:04:31.814Z,4.50
2022-11-25T02:06:39.895Z,4.72
2022-11-25T02:08:44.777Z,5.05
2022-11-25T02:10:47.879Z,4.35
2022-11-25T02:12:51.403Z,4.82
2022-11-25T02:14:57.844Z,5.38
2022-11-25T02:17:02.381Z,4.45
2022-11-25T02:19:09.200Z,4.70
2022-11-25T02:21:12.254Z,4.90
2022-11-25T02:23:25.875Z,4.70
2022-11-25T02:25:34.122Z,4.85
2022-11-25T02:27:37.024Z,4.85
2022-11-25T02:29:40.791Z,5.07
2022-11-25T02:31:45.012Z,5.28
2022-11-25T02:33:48.888Z,4.10
2022-11-25T02:35:56.075Z,5.00
2022-11-25T02:38:05.182Z,4.72
2022-11-25T02:40:09.238Z,4.88
2022-11-25T02:42:13.881Z,4.78
2022-11-25T02:44:16.738Z,4.45
2022-11-25T02:46:22.834Z,4.65
2022-11-25T02:48:46.144Z,4.40
2022-11-25T02:50:50.139Z,4.93
2022-11-25T02:52:52.932Z,4.95
2022-11-25T02:54:55.947Z,4.53
2022-11-25T02:56:58.727Z,4.95
2022-11-25T02:59:03.806Z,4.57
2022-11-25T03:01:06.987Z,4.38
2022-11-25T03:03:10.307Z,4.90
2022-11-25T03:05:13.219Z,4.70
2022-11-25T03:07:16.039Z,4.80
2022-11-25T03:09:18.910Z,4.35
2022-11-25T03:11:41.825Z,4.55
2022-11-25T03:13:44.892Z,4.22
2022-11-25T03:15:49.225Z,4.50
2022-11-25T03:17:52.065Z,4.60
2022-11-25T03:19:54.967Z,4.30
2022-11-25T03:21:57.762Z,4.93
2022-11-25T03:24:00.585Z,4.45
2022-11-25T03:26:06.805Z,4.13
2022-11-25T03:28:10.227Z,4.70
2022-11-25T03:30:15.188Z,4.35
2022-11-25T03:32:20.567Z,4.60
2022-11-25T03:34:23.748Z,5.30
2022-11-25T03:36:26.760Z,4.80
2022-11-25T03:38:29.521Z,3.88
2022-11-25T03:40:32.360Z,4.10
2022-11-25T03:42:35.450Z,4.10
2022-11-25T03:44:39.367Z,3.92
2022-11-25T03:46:42.243Z,4.85
2022-11-25T03:48:46.432Z,4.47
2022-11-25T03:50:49.420Z,4.22
2022-11-25T03:52:52.208Z,4.20
2022-11-25T03:54:55.864Z,3.92
2022-11-25T03:57:02.103Z,4.35
2022-11-25T03:59:06.126Z,3.72
2022-11-25T04:01:09.202Z,3.90
2022-11-25T04:03:12.381Z,4.72
2022-11-25T04:05:17.190Z,4.43
2022-11-25T04:07:20.047Z,4.15
2022-11-25T04:09:25.695Z,4.22
2022-11-25T04:11:43.978Z,3.88
2022-11-25T04:13:47.750Z,3.55
2022-11-25T04:15:52.033Z,3.33
2022-11-25T04:17:55.863Z,4.03
2022-11-25T04:19:58.673Z,3.72
2022-11-25T04:22:02.876Z,4.00
2022-11-25T04:24:08.437Z,4.72
2022-11-25T04:26:11.278Z,4.10
2022-11-25T04:28:16.659Z,4.60
2022-11-25T04:30:20.295Z,4.22
2022-11-25T04:32:24.145Z,4.13
2022-11-25T04:34:27.047Z,3.50
2022-11-25T04:36:30.265Z,3.85
2022-11-25T04:38:34.621Z,3.90
2022-11-25T04:40:38.751Z,3.42
2022-11-25T04:42:50.109Z,3.45
2022-11-25T04:45:21.400Z,12.38
2022-11-25T04:47:19.437Z,6.18
2022-11-25T04:49:22.215Z,6.80
2022-11-25T04:51:25.315Z,6.07
2022-11-25T04:53:34.832Z,3.83
2022-11-25T04:55:37.698Z,3.63
2022-11-25T04:57:44.783Z,3.70
2022-11-25T04:59:48.868Z,3.75
2022-11-25T05:01:51.720Z,3.35
2022-11-25T05:04:02.180Z,3.40
2022-11-25T05:06:07.422Z,3.55
2022-11-25T05:08:11.755Z,3.95
2022-11-25T05:10:17.725Z,4.45
2022-11-25T05:12:25.557Z,6.78
2022-11-25T05:14:28.519Z,7.18
2022-11-25T05:16:31.390Z,13.07
2022-11-25T05:18:35.195Z,15.85
2022-11-25T05:20:38.288Z,6.88
2022-11-25T05:22:41.114Z,5.20
2022-11-25T05:24:51.898Z,4.85
2022-11-25T05:26:57.109Z,5.22
2022-11-25T05:28:59.931Z,10.30
2022-11-25T05:31:03.283Z,12.48
2022-11-25T05:33:06.299Z,5.05
2022-11-25T05:35:10.636Z,4.90
2022-11-25T05:37:18.794Z,4.28
2022-11-25T05:39:30.798Z,4.20
2022-11-25T05:41:52.107Z,3.85
2022-11-25T05:43:57.108Z,3.97
2022-11-25T05:46:00.583Z,4.32
2022-11-25T05:48:03.550Z,4.30
2022-11-25T05:50:09.319Z,4.07
2022-11-25T05:52:12.056Z,4.70
2022-11-25T05:54:23.352Z,4.20
2022-11-25T05:56:26.431Z,4.63
2022-11-25T05:58:53.650Z,3.83
2022-11-25T06:00:58.229Z,3.60
2022-11-25T06:03:02.768Z,3.42
2022-11-25T06:05:06.447Z,4.20
2022-11-25T06:07:09.342Z,3.90
2022-11-25T06:09:12.186Z,4.88
2022-11-25T06:11:16.669Z,4.00
2022-11-25T06:13:20.677Z,5.85
2022-11-25T06:15:23.503Z,8.85
2022-11-25T06:17:29.925Z,14.35
2022-11-25T06:19:53.074Z,5.50
2022-11-25T06:21:56.009Z,4.20
2022-11-25T06:24:00.270Z,3.47
2022-11-25T06:26:07.569Z,3.15
2022-11-25T06:28:13.202Z,3.30
2022-11-25T06:30:20.294Z,3.45
2022-11-25T06:32:37.611Z,3.47
2022-11-25T06:34:52.444Z,3.58
2022-11-25T06:37:21.355Z,3.28
2022-11-25T06:39:24.163Z,3.60
2022-11-25T06:41:26.954Z,3.80
2022-11-25T06:43:30.302Z,4.60
2022-11-25T06:45:33.473Z,4.57
2022-11-25T06:47:37.587Z,4.90
2022-11-25T06:49:40.415Z,3.83
2022-11-25T06:51:43.176Z,3.97
2022-11-25T06:53:45.935Z,3.85
2022-11-25T06:55:48.695Z,4.30
2022-11-25T06:57:55.934Z,3.90
2022-11-25T07:00:11.779Z,3.78
2022-11-25T07:02:14.934Z,4.15
2022-11-25T07:04:19.123Z,4.10
2022-11-25T07:06:22.464Z,4.80
2022-11-25T07:08:28.334Z,4.22
2022-11-25T07:10:35.948Z,4.82
2022-11-25T07:12:38.792Z,5.60
2022-11-25T07:14:41.606Z,6.03
2022-11-25T07:16:46.309Z,4.80
2022-11-25T07:18:49.113Z,5.50
2022-11-25T07:20:53.247Z,5.00
2022-11-25T07:22:55.998Z,6.35
2022-11-25T07:24:58.755Z,6.30
2022-11-25T07:27:01.486Z,6.65
2022-11-25T07:29:13.894Z,5.35
2022-11-25T07:31:32.057Z,7.90
2022-11-25T07:33:36.796Z,6.80
2022-11-25T07:35:39.582Z,6.20
2022-11-25T07:37:43.720Z,6.80
2022-11-25T07:39:46.502Z,5.72
2022-11-25T07:41:51.187Z,5.38
2022-11-25T07:43:56.702Z,6.55
2022-11-25T07:46:13.210Z,5.85
2022-11-25T07:48:15.982Z,6.13
2022-11-25T07:50:18.736Z,8.05
2022-11-25T07:52:21.505Z,6.57
2022-11-25T07:54:25.740Z,6.85
2022-11-25T07:56:29.232Z,6.45
2022-11-25T07:58:31.978Z,7.80
2022-11-25T08:00:34.799Z,6.93
2022-11-25T08:02:37.678Z,6.30
2022-11-25T08:04:40.566Z,6.55
2022-11-25T08:06:45.836Z,7.25
2022-11-25T08:08:48.966Z,7.10
2022-11-25T08:10:53.044Z,6.90
2022-11-25T08:12:55.815Z,6.57
2022-11-25T08:14:58.576Z,7.00
2022-11-25T08:17:01.346Z,6.25
2022-11-25T08:19:06.505Z,6.68
2022-11-25T08:21:11.255Z,6.35
2022-11-25T08:23:14.090Z,5.82
2022-11-25T08:25:17.193Z,6.97
2022-11-25T08:27:21.342Z,9.07
2022-11-25T08:29:24.090Z,8.27
2022-11-25T08:31:29.314Z,9.73
2022-11-25T08:33:32.299Z,9.18
2022-11-25T08:35:37.896Z,6.50
2022-11-25T08:37:41.431Z,5.50
2022-11-25T08:39:52.310Z,5.80
2022-11-25T08:41:55.852Z,5.05
2022-11-25T08:44:02.239Z,5.15
2022-11-25T08:46:09.874Z,5.72
2022-11-25T08:48:12.661Z,5.07
2022-11-25T08:50:16.513Z,5.13
2022-11-25T08:52:19.325Z,5.15
2022-11-25T08:54:22.139Z,5.55
2022-11-25T08:56:26.701Z,5.28
2022-11-25T08:58:29.523Z,5.53
2022-11-25T09:00:33.691Z,6.10
2022-11-25T09:02:36.473Z,5.38
2022-11-25T09:04:39.325Z,5.10
2022-11-25T09:06:42.092Z,4.63
2022-11-25T09:08:45.537Z,5.07
2022-11-25T09:10:48.421Z,4.10
2022-11-25T09:12:51.280Z,5.57
2022-11-25T09:14:54.047Z,5.82
2022-11-25T09:16:58.180Z,5.72
2022-11-25T09:19:01.976Z,6.32
2022-11-25T09:21:10.770Z,6.63
2022-11-25T09:23:14.289Z,6.35
2022-11-25T09:25:17.106Z,6.07
2022-11-25T09:27:19.884Z,6.25
2022-11-25T09:29:22.732Z,5.90
2022-11-25T09:31:25.919Z,6.05
2022-11-25T09:33:30.294Z,5.72
2022-11-25T09:35:33.068Z,6.05
2022-11-25T09:37:35.887Z,6.25
2022-11-25T09:39:39.016Z,6.13
2022-11-25T09:42:15.463Z,6.32
2022-11-25T09:44:52.133Z,5.75
2022-11-25T09:47:04.830Z,6.43
2022-11-25T09:49:21.818Z,5.20
2022-11-25T09:51:34.579Z,4.38
2022-11-25T09:53:44.353Z,4.25
2022-11-25T09:55:50.768Z,4.60
2022-11-25T09:58:03.113Z,4.25
2022-11-25T10:00:12.615Z,4.70
2022-11-25T10:02:26.218Z,4.65
2022-11-25T10:04:38.731Z,5.18
2022-11-25T10:06:51.961Z,4.80
2022-11-25T10:08:59.946Z,4.38
2022-11-25T10:11:15.841Z,4.90
2022-11-25T10:13:23.142Z,4.80
2022-11-25T10:15:30.036Z,4.20
2022-11-25T10:17:43.137Z,3.80
2022-11-25T10:19:57.924Z,3.88
2022-11-25T10:22:03.438Z,4.13
2022-11-25T10:24:07.859Z,3.92
2022-11-25T10:26:14.436Z,3.92
2022-11-25T10:28:21.037Z,4.97
2022-11-25T10:30:26.272Z,4.70
2022-11-25T10:32:34.797Z,4.30
2022-11-25T10:34:41.795Z,4.20
2022-11-25T10:36:47.005Z,3.60
2022-11-25T10:38:58.322Z,3.35
2022-11-25T10:41:04.642Z,3.47
2022-11-25T10:43:13.907Z,3.50
2022-11-25T10:45:16.767Z,3.53
2022-11-25T10:47:34.477Z,3.67
2022-11-25T10:49:46.749Z,4.07
2022-11-25T10:51:52.253Z,4.32
2022-11-25T10:54:17.038Z,4.32
2022-11-25T10:56:19.969Z,4.18
2022-11-25T10:58:33.211Z,3.97
2022-11-25T11:00:38.214Z,3.70
2022-11-25T11:02:48.039Z,3.70
2022-11-25T11:04:55.228Z,2.40
2022-11-25T11:07:09.207Z,1.90
2022-11-25T11:09:34.267Z,1.75
2022-11-25T11:11:48.646Z,2.00
2022-11-25T11:13:59.555Z,3.67
2022-11-25T11:16:02.389Z,3.67
2022-11-25T11:18:21.486Z,2.40
2022-11-25T11:20:25.464Z,1.40
2022-11-25T11:22:29.613Z,2.35
2022-11-25T11:24:35.492Z,1.40
2022-11-25T11:26:38.798Z,1.75
2022-11-25T11:28:42.486Z,1.45
2022-11-25T11:30:56.626Z,1.65
2022-11-25T11:33:02.664Z,1.80
2022-11-25T11:35:16.361Z,2.33
2022-11-25T11:37:34.672Z,1.50
2022-11-25T11:39:59.913Z,1.88
2022-11-25T11:42:10.624Z,1.75
2022-11-25T11:44:22.874Z,2.15
2022-11-25T11:46:36.900Z,2.00
2022-11-25T11:48:41.022Z,1.70
2022-11-25T11:50:49.844Z,2.28
2022-11-25T11:53:03.042Z,2.30
2022-11-25T11:55:21.055Z,2.10
2022-11-25T11:57:36.626Z,1.85
2022-11-25T11:59:59.575Z,1.73
2022-11-25T12:02:23.953Z,1.92
2022-11-25T12:04:30.844Z,1.90
2022-11-25T12:06:39.030Z,1.80
2022-11-25T12:08:51.180Z,1.73
2022-11-25T12:10:57.477Z,1.88
2022-11-25T12:13:08.735Z,1.80
2022-11-25T12:15:21.392Z,2.10
2022-11-25T12:17:29.624Z,4.20
2022-11-25T12:19:40.345Z,4.60
2022-11-25T12:21:50.849Z,5.07
2022-11-25T12:24:04.058Z,5.82
2022-11-25T12:26:13.798Z,4.75
2022-11-25T12:28:23.291Z,2.38
2022-11-25T12:30:35.008Z,2.17
2022-11-25T12:32:51.937Z,5.32
2022-11-25T12:34:59.790Z,5.13
2022-11-25T12:37:14.971Z,5.10
2022-11-25T12:39:27.207Z,4.65
2022-11-25T12:41:36.849Z,3.72
2022-11-25T12:43:44.825Z,6.90
2022-11-25T12:45:56.051Z,4.68
2022-11-25T12:47:58.769Z,2.63
2022-11-25T12:50:01.792Z,2.70
2022-11-25T12:52:21.481Z,2.25
2022-11-25T12:54:41.021Z,2.55
2022-11-25T12:57:01.306Z,2.95
2022-11-25T12:59:24.003Z,2.05
2022-11-25T13:01:56.468Z,1.70
2022-11-25T13:04:17.941Z,1.92
2022-11-25T13:06:38.688Z,1.80
2022-11-25T13:08:57.359Z,1.33
2022-11-25T13:11:18.288Z,1.85
2022-11-25T13:13:33.461Z,1.65
2022-11-25T13:15:41.137Z,1.58
2022-11-25T13:17:46.916Z,1.15
2022-11-25T13:19:49.716Z,1.00
2022-11-25T13:22:00.297Z,0.95
2022-11-25T13:24:03.021Z,1.30
2022-11-25T13:26:42.924Z,1.52
2022-11-25T13:28:47.228Z,1.58
2022-11-25T13:30:51.595Z,1.08
2022-11-25T13:32:54.298Z,1.13
2022-11-25T13:35:38.532Z,1.17
2022-11-25T13:37:42.184Z,1.60
2022-11-25T13:39:47.384Z,1.08
2022-11-25T13:41:59.455Z,1.60
2022-11-25T13:44:07.698Z,1.27
2022-11-25T13:46:10.545Z,1.42
2022-11-25T13:48:18.715Z,3.58
2022-11-25T13:50:28.945Z,1.60
2022-11-25T13:52:48.218Z,1.27
2022-11-25T13:54:54.054Z,1.20
2022-11-25T13:57:18.439Z,1.65
2022-11-25T13:59:37.405Z,1.60
2022-11-25T14:01:42.242Z,2.08
2022-11-25T14:03:48.644Z,2.00
2022-11-25T14:06:03.670Z,2.60
2022-11-25T14:08:15.759Z,2.30
2022-11-25T14:10:38.361Z,2.50
2022-11-25T14:13:07.035Z,2.67
2022-11-25T14:15:34.222Z,2.65
2022-11-25T14:18:08.499Z,2.28
2022-11-25T14:20:35.636Z,3.42
2022-11-25T14:23:09.348Z,3.47
2022-11-25T14:25:20.364Z,3.20
2022-11-25T14:27:27.236Z,2.45
2022-11-25T14:29:37.711Z,2.28
2022-11-25T14:31:46.707Z,2.50
2022-11-25T14:33:54.571Z,2.97
2022-11-25T14:36:05.523Z,3.45
2022-11-25T14:38:14.557Z,2.90
2022-11-25T14:40:21.626Z,2.33
2022-11-25T14:42:27.842Z,2.08
2022-11-25T14:44:37.516Z,2.40
2022-11-25T14:46:53.178Z,2.03
2022-11-25T14:48:57.268Z,2.20
2022-11-25T14:51:02.357Z,2.92
2022-11-25T14:53:08.537Z,2.63
2022-11-25T14:55:12.804Z,3.15
2022-11-25T14:57:19.902Z,4.20
2022-11-25T14:59:22.714Z,4.05
2022-11-25T15:01:27.284Z,2.85
2022-11-25T15:03:31.656Z,2.80
2022-11-25T15:05:36.984Z,2.78
2022-11-25T15:07:42.837Z,3.17
2022-11-25T15:09:46.045Z,2.50
2022-11-25T15:11:49.682Z,3.33
2022-11-25T15:13:56.740Z,2.60
2022-11-25T15:16:07.334Z,3.28
2022-11-25T15:18:17.827Z,3.53
2022-11-25T15:20:24.167Z,3.35
2022-11-25T15:22:27.066Z,4.47
2022-11-25T15:24:31.633Z,6.47
2022-11-25T15:26:37.583Z,5.85
2022-11-25T15:28:40.360Z,5.63
2022-11-25T15:30:43.271Z,5.35
2022-11-25T15:32:46.473Z,4.93
2022-11-25T15:34:50.436Z,4.93
2022-11-25T15:36:54.847Z,5.03
2022-11-25T15:39:14.859Z,5.35
2022-11-25T15:41:28.624Z,6.88
2022-11-25T15:43:33.590Z,5.70
2022-11-25T15:45:46.752Z,6.07
2022-11-25T15:47:49.900Z,6.85
2022-11-25T15:50:00.955Z,5.93
2022-11-25T15:52:09.525Z,5.03
2022-11-25T15:54:20.073Z,6.85
2022-11-25T15:56:27.031Z,7.57
2022-11-25T15:58:29.887Z,8.15
2022-11-25T16:00:32.729Z,8.55
2022-11-25T16:02:39.472Z,9.43
2022-11-25T16:04:42.321Z,8.25
2022-11-25T16:06:54.996Z,9.80
2022-11-25T16:09:01.107Z,6.22
2022-11-25T16:11:19.428Z,6.65
2022-11-25T16:13:31.717Z,8.43
2022-11-25T16:15:44.879Z,9.57
2022-11-25T16:17:48.385Z,6.50
2022-11-25T16:19:51.250Z,4.80
2022-11-25T16:22:02.669Z,4.25
2022-11-25T16:24:15.399Z,4.60
2022-11-25T16:26:22.727Z,4.13
2022-11-25T16:28:26.024Z,6.03
2022-11-25T16:30:29.382Z,5.65
2022-11-25T16:32:33.550Z,7.47
2022-11-25T16:34:36.655Z,10.15
2022-11-25T16:36:39.557Z,7.53
2022-11-25T16:38:42.518Z,5.20
2022-11-25T16:40:48.054Z,4.35
2022-11-25T16:42:53.321Z,15.70
2022-11-25T16:44:56.054Z,20.63
2022-11-25T16:46:59.804Z,24.40
2022-11-25T16:49:09.141Z,26.83
2022-11-25T16:51:15.737Z,24.10
2022-11-25T16:53:19.226Z,20.85
2022-11-25T16:55:22.478Z,15.13
2022-11-25T16:57:26.581Z,8.27
2022-11-25T16:59:33.826Z,4.90
2022-11-25T17:01:36.709Z,5.38
2022-11-25T17:03:39.908Z,5.88
2022-11-25T17:05:42.677Z,3.42
2022-11-25T17:07:46.628Z,5.57
2022-11-25T17:09:49.465Z,10.18
2022-11-25T17:11:55.435Z,4.57
2022-11-25T17:14:02.578Z,3.72
2022-11-25T17:16:06.164Z,4.00
2022-11-25T17:18:09.316Z,4.90
2022-11-25T17:20:16.831Z,4.50
2022-11-25T17:22:21.319Z,8.00
2022-11-25T17:24:25.857Z,7.55
2022-11-25T17:26:37.954Z,5.40
2022-11-25T17:28:40.721Z,4.28
2022-11-25T17:30:46.605Z,3.72
2022-11-25T17:32:54.384Z,3.08
2022-11-25T17:34:57.143Z,3.00
2022-11-25T17:37:00.039Z,3.03
2022-11-25T17:39:02.840Z,3.38
2022-11-25T17:41:10.359Z,4.10
2022-11-25T17:43:16.436Z,5.15
2022-11-25T17:45:21.286Z,5.10
2022-11-25T17:47:25.445Z,3.80
2022-11-25T17:49:28.210Z,3.65
2022-11-25T17:51:31.035Z,3.30
2022-11-25T17:53:37.737Z,3.13
2022-11-25T17:55:41.948Z,2.92
2022-11-25T17:57:44.887Z,3.03
2022-11-25T17:59:47.890Z,3.10
2022-11-25T18:01:55.924Z,4.00
2022-11-25T18:04:00.302Z,4.20
2022-11-25T18:06:03.274Z,5.13
2022-11-25T18:08:06.257Z,6.93
2022-11-25T18:10:10.683Z,5.57
2022-11-25T18:12:17.609Z,3.67
2022-11-25T18:14:26.060Z,4.85
2022-11-25T18:16:31.079Z,5.97
2022-11-25T18:18:33.973Z,7.35
2022-11-25T18:20:38.125Z,8.60
2022-11-25T18:22:40.886Z,6.80
2022-11-25T18:24:44.309Z,9.88
2022-11-25T18:26:50.945Z,7.80
2022-11-25T18:28:53.834Z,3.95
2022-11-25T18:31:01.901Z,7.70
2022-11-25T18:33:06.222Z,12.20
2022-11-25T18:35:16.890Z,11.88
2022-11-25T18:37:21.556Z,6.43
2022-11-25T18:39:24.449Z,5.03
2022-11-25T18:41:27.277Z,4.60
2022-11-25T18:43:30.172Z,4.88
2022-11-25T18:45:36.596Z,4.18
2022-11-25T18:47:39.489Z,4.35
2022-11-25T18:49:42.267Z,4.57
2022-11-25T18:51:45.370Z,4.28
2022-11-25T18:53:49.513Z,4.30
2022-11-25T18:55:52.502Z,4.00
2022-11-25T18:57:55.277Z,4.38
2022-11-25T19:00:17.276Z,3.90
2022-11-25T19:02:20.905Z,4.10
2022-11-25T19:04:23.804Z,11.38
2022-11-25T19:06:28.721Z,16.15
2022-11-25T19:08:31.594Z,8.13
2022-11-25T19:10:38.552Z,5.43
2022-11-25T19:12:44.199Z,4.25
2022-11-25T19:14:48.161Z,4.40
2022-11-25T19:16:51.099Z,4.65
2022-11-25T19:18:54.100Z,5.70
2022-11-25T19:20:56.883Z,7.57
2022-11-25T19:23:01.147Z,10.30
2022-11-25T19:25:04.349Z,7.53
2022-11-25T19:27:15.565Z,6.38
2022-11-25T19:29:20.934Z,6.55
2022-11-25T19:31:24.040Z,6.40
2022-11-25T19:33:30.468Z,6.20
2022-11-25T19:35:36.523Z,5.75
2022-11-25T19:37:39.254Z,5.38
2022-11-25T19:39:41.971Z,5.07
2022-11-25T19:41:44.727Z,4.78
2022-11-25T19:43:48.751Z,5.70
2022-11-25T19:45:51.819Z,7.10
2022-11-25T19:47:54.612Z,10.48
2022-11-25T19:50:02.110Z,9.48
2022-11-25T19:52:05.192Z,10.68
2022-11-25T19:54:13.113Z,8.40
2022-11-25T19:56:18.912Z,8.38
2022-11-25T19:58:22.030Z,7.43
2022-11-25T20:00:26.251Z,6.72
2022-11-25T20:02:30.387Z,6.35
2022-11-25T20:04:33.149Z,6.65
2022-11-25T20:06:36.032Z,6.38
2022-11-25T20:08:38.698Z,6.03
2022-11-25T20:10:41.456Z,6.65
2022-11-25T20:12:44.280Z,7.07
2022-11-25T20:14:47.394Z,5.95
2022-11-25T20:16:51.598Z,5.60
2022-11-25T20:18:54.647Z,6.30
2022-11-25T20:21:02.595Z,6.70
2022-11-25T20:23:08.558Z,5.82
2022-11-25T20:25:15.401Z,6.22
2022-11-25T20:27:18.126Z,7.00
2022-11-25T20:29:26.054Z,5.93
2022-11-25T20:31:31.820Z,5.38
2022-11-25T20:33:35.927Z,5.57
2022-11-25T20:35:39.217Z,6.32
2022-11-25T20:37:53.820Z,7.30
2022-11-25T20:39:59.451Z,7.30
2022-11-25T20:42:02.254Z,5.72
2022-11-25T20:44:05.334Z,5.47
2022-11-25T20:46:15.503Z,5.30
2022-11-25T20:48:18.505Z,5.43
2022-11-25T20:50:23.496Z,5.28
2022-11-25T20:52:31.736Z,4.90
2022-11-25T20:54:37.007Z,5.25
2022-11-25T20:56:39.885Z,5.30
2022-11-25T20:58:42.820Z,4.70
2022-11-25T21:00:45.492Z,4.47
2022-11-25T21:02:48.414Z,4.97
2022-11-25T21:04:51.233Z,4.75
2022-11-25T21:06:55.685Z,4.45
2022-11-25T21:09:00.165Z,4.22
2022-11-25T21:11:03.227Z,3.83
2022-11-25T21:13:15.195Z,4.40
2022-11-25T21:15:20.064Z,4.20
2022-11-25T21:17:22.743Z,3.92
2022-11-25T21:19:25.548Z,4.05
2022-11-25T21:21:31.485Z,4.82
2022-11-25T21:23:38.403Z,4.25
2022-11-25T21:25:41.165Z,4.50
2022-11-25T21:27:45.074Z,4.53
2022-11-25T21:29:47.900Z,4.10
2022-11-25T21:31:50.745Z,4.68
2022-11-25T21:33:58.613Z,3.90
2022-11-25T21:36:01.465Z,3.95
2022-11-25T21:38:06.339Z,4.05
2022-11-25T21:40:24.536Z,3.90
2022-11-25T21:42:27.854Z,3.60
2022-11-25T21:44:33.416Z,3.58
2022-11-25T21:46:36.628Z,3.58
2022-11-25T21:48:39.831Z,3.50
2022-11-25T21:50:42.534Z,4.15
2022-11-25T21:52:45.432Z,3.30
2022-11-25T21:54:48.488Z,3.33
2022-11-25T21:56:52.923Z,3.58
2022-11-25T21:58:56.212Z,3.33
2022-11-25T22:01:01.541Z,3.20
2022-11-25T22:03:04.682Z,3.72
2022-11-25T22:05:15.687Z,3.08
2022-11-25T22:07:18.942Z,3.45
2022-11-25T22:09:22.215Z,3.10
2022-11-25T22:11:30.288Z,3.30
2022-11-25T22:13:38.887Z,3.15
2022-11-25T22:15:42.003Z,3.70
2022-11-25T22:17:45.233Z,3.40
2022-11-25T22:19:48.260Z,3.22
2022-11-25T22:21:51.088Z,2.97
2022-11-25T22:23:54.112Z,3.00
2022-11-25T22:25:57.271Z,3.20
2022-11-25T22:28:00.146Z,3.40
2022-11-25T22:30:04.923Z,3.63
2022-11-25T22:32:12.613Z,3.88
2022-11-25T22:34:19.264Z,4.05
2022-11-25T22:36:34.341Z,3.90
2022-11-25T22:38:37.185Z,3.50
2022-11-25T22:40:40.987Z,3.70
2022-11-25T22:42:47.379Z,3.47
2022-11-25T22:44:50.724Z,4.30
2022-11-25T22:46:54.944Z,5.68
2022-11-25T22:48:57.684Z,6.70
2022-11-25T22:51:00.478Z,6.13
2022-11-25T22:53:03.246Z,6.07
2022-11-25T22:55:17.333Z,5.32
2022-11-25T22:57:20.479Z,5.80
2022-11-25T22:59:23.229Z,5.95
2022-11-25T23:01:26.246Z,5.47
2022-11-25T23:03:30.929Z,4.20
2022-11-25T23:05:35.470Z,4.78
2022-11-25T23:07:38.355Z,5.25
2022-11-25T23:09:41.324Z,5.00
2022-11-25T23:11:44.756Z,4.90
2022-11-25T23:13:48.675Z,4.97
2022-11-25T23:15:54.014Z,4.85
2022-11-25T23:17:58.957Z,4.10
2022-11-25T23:20:03.119Z,4.40
2022-11-25T23:22:10.398Z,4.40
2022-11-25T23:24:15.087Z,4.03
2022-11-25T23:26:18.212Z,5.20
2022-11-25T23:28:21.048Z,4.88
2022-11-25T23:30:24.530Z,4.28
2022-11-25T23:32:27.325Z,4.43
2022-11-25T23:34:30.175Z,4.50
2022-11-25T23:36:42.591Z,4.22
2022-11-25T23:38:49.907Z,4.07
2022-11-25T23:40:52.668Z,4.93
2022-11-25T23:42:57.073Z,4.10
2022-11-25T23:44:59.842Z,4.30
2022-11-25T23:47:06.035Z,4.97
2022-11-25T23:49:18.850Z,4.68
2022-11-25T23:51:22.851Z,5.53
2022-11-25T23:53:30.900Z,7.18
2022-11-25T23:55:36.702Z,5.95
2022-11-25T23:57:39.496Z,4.47
2022-11-25T23:59:42.306Z,4.30
